Terminal Aerodrome Forecast
Issued by NWS

Home | Current Version | Previous Version | Text Only | Print | Product List | Glossary Off
Versions: 1 2 3 4 5 6 7 8 9 10 11 12 13 14 15 16

457
FTUS43 KBIS 242332
TAFMOT
TAF
KMOT 242332Z 2500/2524 02010KT P6SM OVC012
     FM250400 01010KT P6SM BKN008
     FM251600 02014G22KT P6SM OVC012
     FM252200 02013G20KT P6SM BKN020=

USA.gov is the U.S. government's official web portal to all federal, state and local government web resources and services.